Time;durP1;ratioP1;P1;durP2;ratioP2;P2;SDS_P1;SDS_P2;PMS_P1;PMS_P2;Temp;Humidity;BMP_temperature;BMP_pressure;BME280_temperature;BME280_humidity;BME280_pressure;Samples;Min_cycle;Max_cycle;Signal;HPM_P1;HPM_P2
2023/09/06 00:01:17;;;;;;;12.52;3.13;;;;;;;;;;4953609;28;20236;-75
2023/09/06 00:03:43;;;;;;;14.32;3.47;;;;;;;;;;5014879;28;20293;-74
2023/09/06 00:06:10;;;;;;;13.98;3.85;;;;;;;;;;5018056;28;20373;-75
2023/09/06 00:08:37;;;;;;;12.63;3.00;;;;;;;;;;5020822;28;20223;-73
2023/09/06 00:11:06;;;;;;;14.23;3.85;;;;;;;;;;4998703;28;20251;-75
2023/09/06 00:13:34;;;;;;;11.85;2.92;;;;;;;;;;5018773;28;20243;-75
2023/09/06 00:16:01;;;;;;;21.77;5.72;;;;;;;;;;4992200;28;20236;-75
2023/09/06 00:18:27;;;;;;;10.63;2.90;;;;;;;;;;5014867;28;20262;-75
2023/09/06 00:20:57;;;;;;;25.35;6.57;;;;;;;;;;5008045;28;20241;-75
2023/09/06 00:23:27;;;;;;;10.55;2.92;;;;;;;;;;5019181;28;20235;-75
2023/09/06 00:25:53;;;;;;;18.20;4.60;;;;;;;;;;4999179;28;20226;-75
2023/09/06 00:28:20;;;;;;;11.82;2.95;;;;;;;;;;5024942;28;20234;-76
2023/09/06 00:30:47;;;;;;;18.42;4.78;;;;;;;;;;5011884;28;20234;-76
2023/09/06 00:33:13;;;;;;;10.77;2.85;;;;;;;;;;5017342;28;20258;-76
2023/09/06 00:35:40;;;;;;;11.02;2.78;;;;;;;;;;5016785;28;20231;-75
2023/09/06 00:38:07;;;;;;;14.45;3.58;;;;;;;;;;5005555;28;20234;-76
2023/09/06 00:40:37;;;;;;;8.43;2.40;;;;;;;;;;5006746;28;20231;-75
2023/09/06 00:43:05;;;;;;;10.45;2.88;;;;;;;;;;5009140;28;20239;-75
2023/09/06 00:45:53;;;;;;;11.40;2.95;;;;;;;;;;5023307;28;20250;-75
2023/09/06 00:48:21;;;;;;;11.93;3.17;;;;;;;;;;5009773;28;20348;-75
2023/09/06 00:50:53;;;;;;;24.20;6.03;;;;;;;;;;5008694;28;20234;-76
2023/09/06 00:53:20;;;;;;;12.55;3.03;;;;;;;;;;5014941;28;20289;-75
2023/09/06 00:55:48;;;;;;;20.63;5.85;;;;;;;;;;5010516;28;20238;-75
2023/09/06 00:58:19;;;;;;;11.60;2.90;;;;;;;;;;5015836;28;20337;-75
2023/09/06 01:00:46;;;;;;;18.55;4.10;;;;;;;;;;5010252;28;20242;-76
2023/09/06 01:03:14;;;;;;;15.25;3.60;;;;;;;;;;5019666;28;20261;-76
2023/09/06 01:05:55;;;;;;;16.08;4.10;;;;;;;;;;5013122;28;20346;-75
2023/09/06 01:08:26;;;;;;;9.38;2.50;;;;;;;;;;5016762;28;20230;-75
2023/09/06 01:10:53;;;;;;;35.10;8.18;;;;;;;;;;5013245;28;20318;-75
2023/09/06 01:13:20;;;;;;;9.98;2.38;;;;;;;;;;5004336;28;20232;-75
2023/09/06 01:15:48;;;;;;;17.38;4.25;;;;;;;;;;5013996;28;20756;-75
2023/09/06 01:18:16;;;;;;;15.02;3.65;;;;;;;;;;5014613;28;20231;-74
2023/09/06 01:20:44;;;;;;;18.67;4.38;;;;;;;;;;5021785;28;20705;-75
2023/09/06 01:23:11;;;;;;;12.63;2.85;;;;;;;;;;5019266;28;20677;-75
2023/09/06 01:25:37;;;;;;;15.07;3.60;;;;;;;;;;5011133;28;20231;-73
2023/09/06 01:28:04;;;;;;;16.25;3.47;;;;;;;;;;5008692;28;20277;-75
2023/09/06 01:30:31;;;;;;;11.48;2.90;;;;;;;;;;5016587;28;20903;-76
2023/09/06 01:32:58;;;;;;;19.38;5.38;;;;;;;;;;5003567;28;20257;-74
2023/09/06 01:35:24;;;;;;;15.82;3.85;;;;;;;;;;5016531;28;20250;-75
2023/09/06 01:37:51;;;;;;;27.95;6.75;;;;;;;;;;5012236;28;20784;-75
2023/09/06 01:40:18;;;;;;;21.35;4.80;;;;;;;;;;5010707;28;20240;-75
2023/09/06 01:42:44;;;;;;;13.10;3.20;;;;;;;;;;5006618;28;20262;-73
2023/09/06 01:45:11;;;;;;;9.80;2.47;;;;;;;;;;5014915;28;20242;-74
2023/09/06 01:47:37;;;;;;;14.55;3.90;;;;;;;;;;5018210;28;20239;-76
2023/09/06 01:50:04;;;;;;;15.18;3.80;;;;;;;;;;5000389;28;20244;-78
2023/09/06 01:52:31;;;;;;;11.07;2.70;;;;;;;;;;5017150;28;20235;-76
2023/09/06 01:54:58;;;;;;;25.20;6.57;;;;;;;;;;4984811;28;20229;-77
2023/09/06 01:57:24;;;;;;;12.93;3.70;;;;;;;;;;4999276;28;20245;-76
2023/09/06 01:59:51;;;;;;;21.63;6.05;;;;;;;;;;4997849;28;20234;-75
2023/09/06 02:02:17;;;;;;;19.65;4.47;;;;;;;;;;5003393;28;20249;-75
2023/09/06 02:04:44;;;;;;;15.25;3.45;;;;;;;;;;4979755;28;20239;-74
2023/09/06 02:07:10;;;;;;;20.63;4.53;;;;;;;;;;5007239;28;20243;-75
2023/09/06 02:09:37;;;;;;;14.32;3.10;;;;;;;;;;5000195;28;20240;-74
2023/09/06 02:12:05;;;;;;;19.15;4.72;;;;;;;;;;5008718;28;20280;-75
2023/09/06 02:14:31;;;;;;;11.63;2.97;;;;;;;;;;5018791;28;20603;-75
2023/09/06 02:16:58;;;;;;;22.23;5.88;;;;;;;;;;5006731;28;20243;-76
2023/09/06 02:19:24;;;;;;;15.80;4.25;;;;;;;;;;5019551;28;20238;-76
2023/09/06 02:21:52;;;;;;;23.23;5.85;;;;;;;;;;5019011;28;20230;-75
2023/09/06 02:24:19;;;;;;;12.45;3.10;;;;;;;;;;5022296;28;20231;-75
2023/09/06 02:26:45;;;;;;;20.60;4.95;;;;;;;;;;4996334;28;20245;-74
2023/09/06 02:29:12;;;;;;;15.05;3.65;;;;;;;;;;5015069;28;20234;-75
2023/09/06 02:31:38;;;;;;;11.18;2.80;;;;;;;;;;5019095;28;20235;-74
2023/09/06 02:34:05;;;;;;;11.68;3.13;;;;;;;;;;5001114;28;20530;-78
2023/09/06 02:36:32;;;;;;;17.00;4.50;;;;;;;;;;5020570;28;20254;-77
2023/09/06 02:38:58;;;;;;;26.17;6.53;;;;;;;;;;5011922;28;20321;-77
2023/09/06 02:41:25;;;;;;;14.90;3.58;;;;;;;;;;5008390;28;20725;-77
2023/09/06 02:43:51;;;;;;;27.65;7.78;;;;;;;;;;5013514;28;20237;-75
2023/09/06 02:46:18;;;;;;;10.23;2.42;;;;;;;;;;5019333;28;20242;-76
2023/09/06 02:48:46;;;;;;;17.75;4.43;;;;;;;;;;5010020;28;20223;-75
2023/09/06 02:51:14;;;;;;;12.40;3.00;;;;;;;;;;5013217;28;20244;-75
2023/09/06 02:53:45;;;;;;;22.25;5.45;;;;;;;;;;5021775;28;20234;-75
2023/09/06 02:56:15;;;;;;;12.63;3.13;;;;;;;;;;5011880;28;20239;-75
2023/09/06 02:58:42;;;;;;;13.35;3.55;;;;;;;;;;5017667;28;20243;-75
2023/09/06 03:01:19;;;;;;;13.20;3.17;;;;;;;;;;5007750;28;20247;-75
2023/09/06 03:03:47;;;;;;;23.08;5.80;;;;;;;;;;5014084;28;20237;-75
2023/09/06 03:06:32;;;;;;;14.77;3.47;;;;;;;;;;5023007;28;20315;-75
2023/09/06 03:08:59;;;;;;;18.35;4.60;;;;;;;;;;4994678;28;20235;-75
2023/09/06 03:11:26;;;;;;;13.10;3.03;;;;;;;;;;5019764;28;20261;-75
2023/09/06 03:13:55;;;;;;;28.58;7.65;;;;;;;;;;5017259;28;20231;-73
2023/09/06 03:16:22;;;;;;;11.90;3.13;;;;;;;;;;5018692;28;20230;-76
2023/09/06 03:18:49;;;;;;;23.13;5.55;;;;;;;;;;4998005;28;20285;-74
2023/09/06 03:21:17;;;;;;;16.70;3.80;;;;;;;;;;5017254;28;20246;-75
2023/09/06 03:23:44;;;;;;;13.00;3.00;;;;;;;;;;5020011;28;20218;-73
2023/09/06 03:26:11;;;;;;;12.90;3.42;;;;;;;;;;5006585;28;20253;-75
2023/09/06 03:28:40;;;;;;;9.27;2.53;;;;;;;;;;4996086;28;20242;-75
2023/09/06 03:31:13;;;;;;;21.00;4.80;;;;;;;;;;5012167;28;20293;-74
2023/09/06 03:33:40;;;;;;;10.85;2.67;;;;;;;;;;5031556;28;20254;-75
2023/09/06 03:36:07;;;;;;;13.27;3.08;;;;;;;;;;5013340;28;20242;-75
2023/09/06 03:38:34;;;;;;;13.65;3.25;;;;;;;;;;5016636;28;20262;-75
2023/09/06 03:41:02;;;;;;;41.78;9.52;;;;;;;;;;5016350;28;20242;-74
2023/09/06 03:43:30;;;;;;;16.88;3.88;;;;;;;;;;5016760;28;20731;-74
2023/09/06 03:45:58;;;;;;;30.23;7.25;;;;;;;;;;5016060;28;20218;-75
2023/09/06 03:48:27;;;;;;;12.77;3.03;;;;;;;;;;5024333;28;20238;-75
2023/09/06 03:50:55;;;;;;;29.88;7.05;;;;;;;;;;5018446;28;20262;-75
2023/09/06 03:53:26;;;;;;;11.45;2.88;;;;;;;;;;5013519;28;20231;-75
2023/09/06 03:55:57;;;;;;;34.88;8.20;;;;;;;;;;5014273;28;20235;-75
2023/09/06 03:58:24;;;;;;;18.45;3.90;;;;;;;;;;5018226;28;20311;-76
2023/09/06 04:00:52;;;;;;;34.05;7.90;;;;;;;;;;5017317;28;20237;-74
2023/09/06 04:03:20;;;;;;;13.80;4.03;;;;;;;;;;5021033;28;20238;-75
2023/09/06 04:05:46;;;;;;;20.33;4.78;;;;;;;;;;5015088;28;20234;-75
2023/09/06 04:08:19;;;;;;;12.65;3.22;;;;;;;;;;5018329;28;20230;-76
2023/09/06 04:10:46;;;;;;;18.55;4.20;;;;;;;;;;5015214;28;20233;-75
2023/09/06 04:13:13;;;;;;;14.27;3.33;;;;;;;;;;5020626;28;20310;-76
2023/09/06 04:15:42;;;;;;;10.93;2.60;;;;;;;;;;5021805;28;20266;-77
2023/09/06 04:18:12;;;;;;;11.18;2.90;;;;;;;;;;5019601;28;20237;-77
2023/09/06 04:20:50;;;;;;;41.88;8.50;;;;;;;;;;4991831;28;20355;-77
2023/09/06 04:23:17;;;;;;;14.93;3.58;;;;;;;;;;5021875;28;20227;-76
2023/09/06 04:25:44;;;;;;;13.65;3.33;;;;;;;;;;5014935;28;20349;-76
2023/09/06 04:28:12;;;;;;;14.75;3.22;;;;;;;;;;5024230;28;20230;-76
2023/09/06 04:30:42;;;;;;;11.38;3.03;;;;;;;;;;5019209;28;20223;-74
2023/09/06 04:33:14;;;;;;;12.30;3.10;;;;;;;;;;5025544;28;20222;-76
2023/09/06 04:35:44;;;;;;;13.48;3.38;;;;;;;;;;5015864;28;20251;-77
2023/09/06 04:38:12;;;;;;;8.55;2.78;;;;;;;;;;5017472;28;20243;-76
2023/09/06 04:40:39;;;;;;;12.35;3.20;;;;;;;;;;5028260;28;20242;-74
2023/09/06 04:43:07;;;;;;;11.68;3.33;;;;;;;;;;5017611;28;20236;-76
2023/09/06 04:45:37;;;;;;;14.48;3.65;;;;;;;;;;5018772;28;20326;-77
2023/09/06 04:48:10;;;;;;;12.93;3.55;;;;;;;;;;5020139;28;20246;-76
2023/09/06 04:50:38;;;;;;;15.32;4.10;;;;;;;;;;5021707;28;20291;-76
2023/09/06 04:53:05;;;;;;;8.05;2.10;;;;;;;;;;5014727;28;20246;-77
2023/09/06 04:55:35;;;;;;;13.95;3.45;;;;;;;;;;4999136;28;20239;-75
2023/09/06 04:58:05;;;;;;;24.83;6.57;;;;;;;;;;5010398;28;20281;-77
2023/09/06 05:00:35;;;;;;;10.13;2.72;;;;;;;;;;4999797;28;20724;-76
2023/09/06 05:03:03;;;;;;;19.52;5.15;;;;;;;;;;5015529;28;20777;-75
2023/09/06 05:05:29;;;;;;;11.05;2.67;;;;;;;;;;4996519;28;20705;-76
2023/09/06 05:07:56;;;;;;;19.63;5.20;;;;;;;;;;5012765;28;20231;-76
2023/09/06 05:10:23;;;;;;;26.15;6.15;;;;;;;;;;5021082;28;20235;-76
2023/09/06 05:12:49;;;;;;;22.00;5.82;;;;;;;;;;5017315;28;20321;-76
2023/09/06 05:15:16;;;;;;;12.80;3.75;;;;;;;;;;5015924;28;20227;-75
2023/09/06 05:17:43;;;;;;;8.63;2.35;;;;;;;;;;5021649;28;20245;-76
2023/09/06 05:20:27;;;;;;;14.45;3.80;;;;;;;;;;5012190;28;20238;-76
2023/09/06 05:22:55;;;;;;;34.03;8.48;;;;;;;;;;5014529;28;20263;-75
2023/09/06 05:25:22;;;;;;;14.90;3.85;;;;;;;;;;5019569;28;20277;-75
2023/09/06 05:27:49;;;;;;;18.45;4.97;;;;;;;;;;5010849;28;20227;-76
2023/09/06 05:30:16;;;;;;;13.25;3.53;;;;;;;;;;5021148;28;20250;-75
2023/09/06 05:32:43;;;;;;;11.35;3.05;;;;;;;;;;5016534;28;20225;-76
2023/09/06 05:35:09;;;;;;;11.50;3.20;;;;;;;;;;5018874;28;20239;-76
2023/09/06 05:37:37;;;;;;;18.92;4.95;;;;;;;;;;5019043;28;20238;-76
2023/09/06 05:40:04;;;;;;;17.40;4.43;;;;;;;;;;5011098;28;20246;-75
2023/09/06 05:42:31;;;;;;;13.35;3.22;;;;;;;;;;5018715;28;20748;-76
2023/09/06 05:44:57;;;;;;;22.58;6.20;;;;;;;;;;5016279;28;20231;-75
2023/09/06 05:47:24;;;;;;;17.15;4.45;;;;;;;;;;5015824;28;20250;-76
2023/09/06 05:49:55;;;;;;;23.45;6.63;;;;;;;;;;5008321;28;20239;-74
2023/09/06 05:52:22;;;;;;;14.50;3.72;;;;;;;;;;5016321;28;20245;-75
2023/09/06 05:54:50;;;;;;;19.90;5.22;;;;;;;;;;5008255;28;20227;-76
2023/09/06 05:57:21;;;;;;;15.50;3.72;;;;;;;;;;5014884;28;20231;-75
2023/09/06 05:59:51;;;;;;;27.08;6.93;;;;;;;;;;4996454;28;20265;-75
2023/09/06 06:02:18;;;;;;;11.98;3.05;;;;;;;;;;5002725;28;20235;-76
2023/09/06 06:04:48;;;;;;;11.75;3.17;;;;;;;;;;5014647;28;20246;-75
2023/09/06 06:07:16;;;;;;;14.82;4.13;;;;;;;;;;5016167;28;20293;-75
2023/09/06 06:09:42;;;;;;;16.30;4.63;;;;;;;;;;5021122;28;20231;-76
2023/09/06 06:12:13;;;;;;;15.38;3.88;;;;;;;;;;4990066;28;20238;-76
2023/09/06 06:14:40;;;;;;;11.73;3.88;;;;;;;;;;5017915;28;20243;-75
2023/09/06 06:17:08;;;;;;;13.52;3.70;;;;;;;;;;5010819;28;20247;-75
2023/09/06 06:19:36;;;;;;;13.40;3.35;;;;;;;;;;5014485;28;20242;-76
2023/09/06 06:22:03;;;;;;;24.75;6.65;;;;;;;;;;5011758;28;20223;-74
2023/09/06 06:24:31;;;;;;;11.00;2.97;;;;;;;;;;5015084;28;20331;-74
2023/09/06 06:26:58;;;;;;;26.63;6.97;;;;;;;;;;5009618;28;20223;-76
2023/09/06 06:29:25;;;;;;;13.30;3.70;;;;;;;;;;4995651;28;20232;-76
2023/09/06 06:31:52;;;;;;;29.95;7.40;;;;;;;;;;5018243;28;20785;-75
2023/09/06 06:34:19;;;;;;;12.13;4.22;;;;;;;;;;5016755;28;20238;-75
2023/09/06 06:36:46;;;;;;;27.85;6.60;;;;;;;;;;5010792;28;20230;-75
2023/09/06 06:39:14;;;;;;;12.50;3.30;;;;;;;;;;5019943;28;20235;-75
2023/09/06 06:41:41;;;;;;;11.43;2.85;;;;;;;;;;5019838;28;20265;-74
2023/09/06 06:44:08;;;;;;;13.25;3.08;;;;;;;;;;5006977;28;20230;-75
2023/09/06 06:46:37;;;;;;;10.55;2.80;;;;;;;;;;5014501;28;20262;-75
2023/09/06 06:49:09;;;;;;;12.80;3.92;;;;;;;;;;5018314;28;20241;-76
2023/09/06 06:51:40;;;;;;;15.10;3.65;;;;;;;;;;5025982;28;20238;-76
2023/09/06 06:54:09;;;;;;;9.88;2.38;;;;;;;;;;5006682;28;20237;-76
2023/09/06 06:56:36;;;;;;;13.65;3.40;;;;;;;;;;4996866;28;20227;-75
2023/09/06 06:59:03;;;;;;;15.07;3.70;;;;;;;;;;5020082;28;20223;-75
2023/09/06 07:01:31;;;;;;;10.80;2.58;;;;;;;;;;5020872;28;20247;-76
2023/09/06 07:03:58;;;;;;;25.60;6.32;;;;;;;;;;5012347;28;20221;-76
2023/09/06 07:06:25;;;;;;;8.00;2.20;;;;;;;;;;5017406;28;20219;-76
2023/09/06 07:08:53;;;;;;;25.15;6.07;;;;;;;;;;5005147;28;20246;-77
2023/09/06 07:11:20;;;;;;;11.23;2.75;;;;;;;;;;5012038;28;20296;-75
2023/09/06 07:13:47;;;;;;;14.65;4.00;;;;;;;;;;4994260;28;20223;-76
2023/09/06 07:16:16;;;;;;;17.98;3.78;;;;;;;;;;4986976;28;20236;-75
2023/09/06 07:18:42;;;;;;;14.50;3.33;;;;;;;;;;5002542;28;20224;-76
2023/09/06 07:21:09;;;;;;;18.85;3.83;;;;;;;;;;5015561;28;20276;-76
2023/09/06 07:23:36;;;;;;;26.20;5.63;;;;;;;;;;5012783;28;20230;-75
2023/09/06 07:26:04;;;;;;;32.20;8.60;;;;;;;;;;4949143;28;20233;-76
2023/09/06 07:28:51;;;;;;;13.38;2.85;;;;;;;;;;4949938;28;20703;-76
2023/09/06 07:31:17;;;;;;;19.48;4.07;;;;;;;;;;5001614;28;20277;-76
2023/09/06 07:33:44;;;;;;;19.48;5.45;;;;;;;;;;5008355;28;20234;-75
2023/09/06 07:36:14;;;;;;;15.23;3.55;;;;;;;;;;5000388;28;20322;-75
2023/09/06 07:38:41;;;;;;;12.98;2.90;;;;;;;;;;5007279;28;20223;-76
2023/09/06 07:41:07;;;;;;;16.67;3.95;;;;;;;;;;5014290;28;20277;-75
2023/09/06 07:43:36;;;;;;;18.75;4.55;;;;;;;;;;5012593;28;20238;-76
2023/09/06 07:46:03;;;;;;;32.42;7.70;;;;;;;;;;5009338;28;20235;-76
2023/09/06 07:48:30;;;;;;;17.30;4.13;;;;;;;;;;5015089;28;20234;-75
2023/09/06 07:50:58;;;;;;;36.75;8.55;;;;;;;;;;5011371;28;20646;-75
2023/09/06 07:53:25;;;;;;;17.20;4.03;;;;;;;;;;5014053;28;20227;-76
2023/09/06 07:55:53;;;;;;;32.25;6.97;;;;;;;;;;5010891;28;20231;-75
2023/09/06 07:58:19;;;;;;;14.80;3.42;;;;;;;;;;4996030;28;20227;-76
2023/09/06 08:00:47;;;;;;;17.45;4.28;;;;;;;;;;5008887;28;20239;-74
2023/09/06 08:03:19;;;;;;;19.88;4.53;;;;;;;;;;5013795;28;20321;-76
2023/09/06 08:05:46;;;;;;;19.38;4.95;;;;;;;;;;5011872;28;20223;-75
2023/09/06 08:08:13;;;;;;;15.52;3.78;;;;;;;;;;5016988;28;20297;-75
2023/09/06 08:10:40;;;;;;;14.07;3.35;;;;;;;;;;5019182;28;20284;-76
2023/09/06 08:13:06;;;;;;;19.27;4.70;;;;;;;;;;4994174;28;20377;-75
2023/09/06 08:15:34;;;;;;;16.80;4.20;;;;;;;;;;5014949;28;20231;-76
2023/09/06 08:18:03;;;;;;;34.47;8.25;;;;;;;;;;5008158;28;20227;-75
2023/09/06 08:20:30;;;;;;;17.48;4.20;;;;;;;;;;5013658;28;20239;-76
2023/09/06 08:22:56;;;;;;;38.03;9.13;;;;;;;;;;4992114;28;20230;-75
2023/09/06 08:25:23;;;;;;;20.15;4.60;;;;;;;;;;5018999;28;20242;-75
2023/09/06 08:27:52;;;;;;;14.88;3.75;;;;;;;;;;4989504;28;20300;-74
2023/09/06 08:30:20;;;;;;;17.67;3.65;;;;;;;;;;4827825;28;20245;-75
2023/09/06 08:32:51;;;;;;;23.02;5.22;;;;;;;;;;4774106;28;20246;-72
2023/09/06 08:35:17;;;;;;;15.55;3.63;;;;;;;;;;4714808;28;21231;-74
2023/09/06 08:37:46;;;;;;;20.58;4.85;;;;;;;;;;4934668;28;20227;-74
2023/09/06 08:40:13;;;;;;;16.45;4.00;;;;;;;;;;4753706;28;20249;-75
2023/09/06 08:42:39;;;;;;;14.73;3.38;;;;;;;;;;4937575;28;20597;-73
2023/09/06 08:45:09;;;;;;;14.57;3.70;;;;;;;;;;5002190;28;20231;-75
2023/09/06 08:47:37;;;;;;;12.20;3.08;;;;;;;;;;4988196;28;20235;-75
2023/09/06 08:50:04;;;;;;;14.05;3.83;;;;;;;;;;5005115;28;20325;-74
2023/09/06 08:52:31;;;;;;;18.35;4.65;;;;;;;;;;4988223;28;20235;-75
2023/09/06 08:54:58;;;;;;;24.90;6.25;;;;;;;;;;5005878;28;20233;-77
2023/09/06 08:57:26;;;;;;;16.05;3.72;;;;;;;;;;4997017;28;20243;-76
2023/09/06 08:59:53;;;;;;;33.97;8.13;;;;;;;;;;4996655;28;20346;-77
2023/09/06 09:02:19;;;;;;;19.42;4.53;;;;;;;;;;4896932;28;20250;-76
2023/09/06 09:04:46;;;;;;;29.17;6.30;;;;;;;;;;4837630;29;20263;-76
2023/09/06 09:07:13;;;;;;;36.63;7.88;;;;;;;;;;4867884;29;20223;-77
2023/09/06 09:09:59;;;;;;;19.40;4.88;;;;;;;;;;4847803;29;20766;-73
2023/09/06 09:12:26;;;;;;;15.48;3.85;;;;;;;;;;4903060;28;20268;-75
2023/09/06 09:14:54;;;;;;;18.25;5.07;;;;;;;;;;4885188;28;20227;-75
2023/09/06 09:17:24;;;;;;;24.13;5.60;;;;;;;;;;4914055;28;20277;-74
2023/09/06 09:19:52;;;;;;;24.13;6.40;;;;;;;;;;4779105;28;20248;-76
2023/09/06 09:22:30;;;;;;;16.48;3.83;;;;;;;;;;4743526;28;20299;-76
2023/09/06 09:24:58;;;;;;;17.90;4.65;;;;;;;;;;4999058;28;20215;-79
2023/09/06 09:27:26;;;;;;;21.88;5.07;;;;;;;;;;5026128;28;20207;-76
2023/09/06 09:29:53;;;;;;;16.98;4.60;;;;;;;;;;4845490;28;20244;-76
2023/09/06 09:32:19;;;;;;;18.35;4.18;;;;;;;;;;4906146;28;1250791;-76
2023/09/06 09:34:46;;;;;;;27.52;7.30;;;;;;;;;;4923912;28;20290;-76
2023/09/06 09:37:12;;;;;;;12.32;3.55;;;;;;;;;;4871247;28;20245;-77
2023/09/06 09:39:39;;;;;;;46.50;11.35;;;;;;;;;;4974924;28;20235;-77
2023/09/06 09:42:09;;;;;;;9.43;2.55;;;;;;;;;;4941507;28;20263;-78
2023/09/06 09:44:35;;;;;;;37.90;9.43;;;;;;;;;;4981803;28;20199;-79
2023/09/06 09:47:08;;;;;;;17.35;4.63;;;;;;;;;;4954267;28;20231;-77
2023/09/06 09:49:55;;;;;;;18.05;4.20;;;;;;;;;;4994780;28;20222;-78
2023/09/06 09:52:24;;;;;;;13.77;3.80;;;;;;;;;;5003860;28;20243;-75
2023/09/06 09:54:51;;;;;;;15.68;3.60;;;;;;;;;;5001042;28;20221;-78
2023/09/06 09:57:21;;;;;;;10.38;2.75;;;;;;;;;;5023718;28;20226;-78
2023/09/06 09:59:50;;;;;;;12.18;3.28;;;;;;;;;;5003995;28;20330;-78
2023/09/06 10:02:16;;;;;;;12.60;3.10;;;;;;;;;;5007304;28;20245;-78
2023/09/06 10:05:02;;;;;;;17.58;3.95;;;;;;;;;;5016480;28;20226;-76
2023/09/06 10:07:30;;;;;;;20.60;4.78;;;;;;;;;;5011329;28;20226;-78
2023/09/06 10:10:14;;;;;;;23.27;5.10;;;;;;;;;;5013819;28;20771;-77
2023/09/06 10:12:43;;;;;;;23.20;6.30;;;;;;;;;;5005971;28;20221;-77
2023/09/06 10:15:13;;;;;;;12.25;3.38;;;;;;;;;;5019222;28;20223;-77
2023/09/06 10:17:40;;;;;;;16.65;4.18;;;;;;;;;;5012538;28;20238;-78
2023/09/06 10:20:16;;;;;;;14.60;3.55;;;;;;;;;;5015212;28;20226;-77
2023/09/06 10:22:44;;;;;;;20.52;5.40;;;;;;;;;;5000341;28;20583;-77
2023/09/06 10:25:10;;;;;;;13.40;3.20;;;;;;;;;;5013737;28;20231;-78
2023/09/06 10:27:47;;;;;;;32.45;8.05;;;;;;;;;;5001292;28;20300;-76
2023/09/06 10:30:17;;;;;;;13.85;3.50;;;;;;;;;;5005489;28;20238;-76
2023/09/06 10:32:45;;;;;;;22.92;5.55;;;;;;;;;;4998544;28;20230;-77
2023/09/06 10:35:22;;;;;;;13.48;3.05;;;;;;;;;;5019488;28;20241;-77
2023/09/06 10:38:02;;;;;;;15.85;3.75;;;;;;;;;;5009056;28;20234;-77
2023/09/06 10:40:57;;;;;;;17.95;4.18;;;;;;;;;;5013450;28;20238;-77
2023/09/06 10:43:42;;;;;;;17.55;4.40;;;;;;;;;;4986630;28;20238;-76
2023/09/06 10:46:08;;;;;;;12.52;3.28;;;;;;;;;;5014036;28;20226;-77
2023/09/06 10:48:35;;;;;;;28.48;6.88;;;;;;;;;;5011927;28;20250;-77
2023/09/06 10:51:06;;;;;;;15.80;3.50;;;;;;;;;;5015088;28;20600;-77
2023/09/06 10:53:34;;;;;;;44.30;9.15;;;;;;;;;;5007292;28;20233;-76
2023/09/06 10:56:02;;;;;;;11.88;3.22;;;;;;;;;;5016659;28;20234;-78
2023/09/06 10:58:30;;;;;;;12.48;3.67;;;;;;;;;;5011968;28;20226;-76
2023/09/06 11:01:13;;;;;;;11.25;3.55;;;;;;;;;;5016511;28;20253;-77
2023/09/06 11:03:41;;;;;;;16.13;4.40;;;;;;;;;;5008839;28;20315;-76
2023/09/06 11:06:09;;;;;;;15.77;3.92;;;;;;;;;;5001639;28;20231;-75
2023/09/06 11:08:38;;;;;;;26.52;7.10;;;;;;;;;;4915550;28;20227;-77
2023/09/06 11:11:07;;;;;;;12.43;3.08;;;;;;;;;;5008613;28;20230;-77
2023/09/06 11:13:35;;;;;;;17.63;5.03;;;;;;;;;;5009629;28;20226;-76
2023/09/06 11:16:03;;;;;;;13.43;3.45;;;;;;;;;;5017040;28;20304;-76
2023/09/06 11:18:33;;;;;;;36.22;6.95;;;;;;;;;;5007175;28;20230;-76
2023/09/06 11:21:00;;;;;;;11.82;3.38;;;;;;;;;;5008082;28;20239;-75
2023/09/06 11:23:26;;;;;;;12.95;3.00;;;;;;;;;;5008576;28;20241;-75
2023/09/06 11:25:58;;;;;;;12.35;3.10;;;;;;;;;;5016728;28;20222;-77
2023/09/06 11:28:28;;;;;;;19.25;3.92;;;;;;;;;;5016240;28;20369;-77
2023/09/06 11:30:58;;;;;;;12.30;3.80;;;;;;;;;;5014507;28;20230;-77
2023/09/06 11:33:29;;;;;;;12.95;3.85;;;;;;;;;;5001140;28;20612;-76
2023/09/06 11:35:58;;;;;;;15.00;3.55;;;;;;;;;;4979055;28;20250;-77
2023/09/06 11:38:30;;;;;;;15.20;3.47;;;;;;;;;;5002683;28;20239;-76
2023/09/06 11:40:58;;;;;;;15.95;3.80;;;;;;;;;;5002316;28;20238;-76
2023/09/06 11:43:27;;;;;;;16.75;4.18;;;;;;;;;;5015358;28;20246;-76
2023/09/06 11:45:56;;;;;;;14.48;3.97;;;;;;;;;;5010165;28;20250;-77
2023/09/06 11:48:27;;;;;;;14.65;3.60;;;;;;;;;;5012907;28;20232;-76
2023/09/06 11:51:03;;;;;;;15.05;3.60;;;;;;;;;;5004677;28;20445;-75
2023/09/06 11:53:31;;;;;;;17.70;4.50;;;;;;;;;;5009002;28;20236;-76
2023/09/06 11:56:00;;;;;;;20.52;5.15;;;;;;;;;;5007866;28;20230;-76
2023/09/06 11:58:29;;;;;;;16.95;3.92;;;;;;;;;;4993319;28;20310;-74
2023/09/06 12:00:56;;;;;;;12.45;3.35;;;;;;;;;;5019985;28;20322;-76
2023/09/06 12:03:33;;;;;;;11.95;3.22;;;;;;;;;;5019660;28;20317;-76
2023/09/06 12:06:01;;;;;;;12.95;3.03;;;;;;;;;;5015028;28;20229;-76
2023/09/06 12:08:29;;;;;;;18.35;4.38;;;;;;;;;;5002770;28;20233;-77
2023/09/06 12:11:07;;;;;;;13.55;3.30;;;;;;;;;;5024166;28;20235;-76
2023/09/06 12:13:37;;;;;;;23.27;5.85;;;;;;;;;;5017049;28;20257;-76
2023/09/06 12:16:08;;;;;;;16.20;3.53;;;;;;;;;;5026031;28;20274;-77
2023/09/06 12:18:35;;;;;;;26.98;6.60;;;;;;;;;;5013538;28;20234;-76
2023/09/06 12:21:03;;;;;;;11.95;3.15;;;;;;;;;;4996108;28;20337;-76
2023/09/06 12:23:30;;;;;;;29.70;6.85;;;;;;;;;;4962856;28;20783;-77
2023/09/06 12:25:58;;;;;;;26.40;5.35;;;;;;;;;;4990474;28;20702;-76
2023/09/06 12:28:25;;;;;;;19.20;4.10;;;;;;;;;;5011783;28;20237;-76
2023/09/06 12:30:54;;;;;;;23.33;4.82;;;;;;;;;;4997305;28;20233;-77
2023/09/06 12:33:22;;;;;;;21.58;4.60;;;;;;;;;;5008438;28;20247;-76
2023/09/06 12:35:58;;;;;;;20.23;4.20;;;;;;;;;;5010826;28;20310;-76
2023/09/06 12:38:29;;;;;;;17.90;4.10;;;;;;;;;;5007943;28;20369;-76
2023/09/06 12:40:56;;;;;;;28.88;6.22;;;;;;;;;;5008556;28;20287;-76
2023/09/06 12:43:24;;;;;;;16.70;3.55;;;;;;;;;;5001019;28;20279;-76
2023/09/06 12:45:53;;;;;;;20.23;4.80;;;;;;;;;;5005626;28;20231;-76
2023/09/06 12:48:21;;;;;;;20.77;4.35;;;;;;;;;;4869483;28;20236;-77
2023/09/06 12:50:48;;;;;;;27.52;4.93;;;;;;;;;;4991893;28;20246;-75
2023/09/06 12:53:16;;;;;;;21.05;4.50;;;;;;;;;;5012980;28;20245;-76
2023/09/06 12:55:43;;;;;;;34.35;8.07;;;;;;;;;;5010424;28;20405;-76
2023/09/06 12:58:09;;;;;;;17.27;3.88;;;;;;;;;;5018022;28;20234;-76
2023/09/06 13:00:36;;;;;;;27.40;9.48;;;;;;;;;;5011626;28;20246;-76
2023/09/06 13:03:03;;;;;;;19.30;4.55;;;;;;;;;;5016427;28;20235;-75
2023/09/06 13:05:31;;;;;;;28.88;6.60;;;;;;;;;;5011552;28;20226;-76
2023/09/06 13:08:01;;;;;;;18.35;4.15;;;;;;;;;;5019450;28;20229;-77
2023/09/06 13:10:31;;;;;;;24.10;5.50;;;;;;;;;;5015736;28;20222;-76
2023/09/06 13:12:58;;;;;;;17.27;4.45;;;;;;;;;;5019233;28;20222;-76
2023/09/06 13:15:24;;;;;;;18.77;6.97;;;;;;;;;;5018830;28;20214;-76
2023/09/06 13:17:51;;;;;;;21.95;4.72;;;;;;;;;;5012002;28;20237;-77
2023/09/06 13:20:17;;;;;;;25.90;8.38;;;;;;;;;;5014699;28;20253;-76
2023/09/06 13:22:44;;;;;;;30.85;8.88;;;;;;;;;;5013044;28;20234;-76
2023/09/06 13:25:11;;;;;;;21.20;5.32;;;;;;;;;;5016606;28;20239;-76
2023/09/06 13:27:44;;;;;;;33.70;10.45;;;;;;;;;;5007270;28;20231;-75
2023/09/06 13:30:11;;;;;;;21.50;4.68;;;;;;;;;;5014020;28;20242;-77
2023/09/06 13:32:37;;;;;;;20.65;5.28;;;;;;;;;;5002690;28;20225;-76
2023/09/06 13:35:05;;;;;;;18.15;4.93;;;;;;;;;;5025041;28;20225;-76
2023/09/06 13:37:32;;;;;;;28.40;7.30;;;;;;;;;;5011172;28;20223;-77
2023/09/06 13:39:58;;;;;;;20.73;4.68;;;;;;;;;;5015438;28;20253;-77
2023/09/06 13:42:27;;;;;;;20.17;4.95;;;;;;;;;;5013269;28;20234;-76
2023/09/06 13:44:54;;;;;;;18.20;3.80;;;;;;;;;;5014365;28;20230;-77
2023/09/06 13:47:21;;;;;;;19.27;5.07;;;;;;;;;;5016958;28;20226;-77
2023/09/06 13:49:49;;;;;;;14.68;3.72;;;;;;;;;;5013025;28;20620;-78
2023/09/06 13:52:16;;;;;;;18.13;4.03;;;;;;;;;;5000102;28;20238;-77
2023/09/06 13:54:43;;;;;;;20.17;5.18;;;;;;;;;;5006838;28;20237;-77
2023/09/06 13:57:10;;;;;;;14.60;3.40;;;;;;;;;;5018352;28;20233;-76
2023/09/06 13:59:36;;;;;;;24.73;6.45;;;;;;;;;;5012601;28;20223;-76
2023/09/06 14:02:03;;;;;;;18.17;4.30;;;;;;;;;;5018718;28;20249;-76
2023/09/06 14:04:30;;;;;;;23.42;7.00;;;;;;;;;;5012275;28;20304;-77
2023/09/06 14:06:57;;;;;;;18.23;3.88;;;;;;;;;;5018421;28;20227;-76
2023/09/06 14:09:23;;;;;;;17.23;4.07;;;;;;;;;;5001109;28;20218;-76
2023/09/06 14:11:50;;;;;;;16.27;4.93;;;;;;;;;;5004556;28;20245;-76
2023/09/06 14:14:18;;;;;;;14.90;3.22;;;;;;;;;;5016294;28;20229;-77
2023/09/06 14:16:45;;;;;;;31.35;8.02;;;;;;;;;;5011828;28;20222;-76
2023/09/06 14:19:11;;;;;;;17.33;3.90;;;;;;;;;;5013064;28;20225;-77
2023/09/06 14:21:45;;;;;;;26.75;6.55;;;;;;;;;;5010397;28;20234;-75
2023/09/06 14:24:13;;;;;;;17.40;3.90;;;;;;;;;;5016263;28;20222;-77
2023/09/06 14:26:42;;;;;;;35.50;8.57;;;;;;;;;;5010877;28;20236;-76
2023/09/06 14:29:10;;;;;;;13.07;3.55;;;;;;;;;;5020820;28;20296;-78
2023/09/06 14:31:36;;;;;;;31.52;8.10;;;;;;;;;;5002481;28;20230;-77
2023/09/06 14:34:03;;;;;;;20.27;4.90;;;;;;;;;;4990178;28;20230;-76
2023/09/06 14:36:30;;;;;;;25.38;6.00;;;;;;;;;;4844541;28;20237;-76
2023/09/06 14:38:56;;;;;;;19.60;4.93;;;;;;;;;;5012834;28;20291;-76